createdAt,value
2022-07-29T00:05:07.823Z,15.09
2022-07-29T00:10:10.872Z,15.04
2022-07-29T00:15:13.633Z,14.97
2022-07-29T00:20:21.826Z,14.96
2022-07-29T00:25:24.578Z,14.94
2022-07-29T00:30:27.337Z,14.90
2022-07-29T00:35:35.349Z,14.86
2022-07-29T00:40:38.095Z,14.83
2022-07-29T00:45:46.330Z,14.79
2022-07-29T01:01:31.980Z,14.66
2022-07-29T01:06:35.452Z,14.53
2022-07-29T01:11:38.672Z,14.46
2022-07-29T01:16:53.675Z,14.41
2022-07-29T01:22:01.634Z,14.35
2022-07-29T01:27:28.393Z,14.26
2022-07-29T01:38:01.926Z,14.21
2022-07-29T01:43:11.494Z,14.10
2022-07-29T01:48:18.919Z,14.04
2022-07-29T01:53:38.105Z,13.96
2022-07-29T01:58:44.916Z,13.88
2022-07-29T02:03:49.910Z,13.83
2022-07-29T02:09:00.452Z,13.82
2022-07-29T02:14:04.226Z,13.81
2022-07-29T02:19:09.891Z,13.77
2022-07-29T02:24:20.417Z,13.74
2022-07-29T02:29:25.621Z,13.71
2022-07-29T02:34:30.353Z,13.67
2022-07-29T02:39:41.129Z,13.64
2022-07-29T02:44:44.394Z,13.62
2022-07-29T02:49:54.388Z,13.57
2022-07-29T02:55:20.305Z,13.60
2022-07-29T03:00:25.759Z,13.48
2022-07-29T03:05:29.519Z,13.38
2022-07-29T03:10:41.024Z,13.30
2022-07-29T03:15:46.208Z,13.25
2022-07-29T03:20:49.153Z,13.20
2022-07-29T03:31:10.596Z,13.29
2022-07-29T03:36:13.336Z,13.23
2022-07-29T03:41:17.974Z,13.23
2022-07-29T03:46:33.157Z,13.19
2022-07-29T03:51:36.876Z,13.20
2022-07-29T03:56:42.092Z,13.24
2022-07-29T04:01:50.925Z,13.36
2022-07-29T04:06:53.765Z,13.61
2022-07-29T04:12:02.361Z,13.63
2022-07-29T04:17:12.033Z,13.74
2022-07-29T04:22:14.770Z,13.85
2022-07-29T04:27:17.523Z,13.95
2022-07-29T04:32:26.002Z,14.09
2022-07-29T04:37:28.786Z,14.22
2022-07-29T04:42:31.515Z,14.31
2022-07-29T04:47:39.976Z,14.40
2022-07-29T04:52:42.725Z,14.50
2022-07-29T04:57:45.569Z,14.60
2022-07-29T05:08:11.598Z,14.90
2022-07-29T05:13:14.436Z,14.96
2022-07-29T05:18:17.477Z,15.11
2022-07-29T05:23:25.652Z,15.30
2022-07-29T05:28:28.377Z,15.51
2022-07-29T05:33:35.606Z,15.73
2022-07-29T05:38:44.985Z,15.94
2022-07-29T05:43:47.816Z,16.17
2022-07-29T05:48:50.620Z,16.37
2022-07-29T05:53:58.657Z,16.58
2022-07-29T05:59:01.415Z,16.77
2022-07-29T06:04:04.276Z,16.93
2022-07-29T06:09:13.346Z,17.13
2022-07-29T06:14:17.317Z,17.37
2022-07-29T06:19:20.247Z,17.61
2022-07-29T06:24:28.272Z,17.93
2022-07-29T06:29:30.991Z,18.25
2022-07-29T06:34:33.732Z,18.54
2022-07-29T06:39:42.360Z,18.81
2022-07-29T06:44:45.141Z,19.09
2022-07-29T06:49:47.952Z,19.33
2022-07-29T06:54:56.064Z,19.55
2022-07-29T07:05:17.453Z,20.04
2022-07-29T07:10:20.472Z,20.17
2022-07-29T07:15:39.102Z,20.30
2022-07-29T07:26:07.124Z,20.75
2022-07-29T07:31:09.929Z,20.84
2022-07-29T07:36:12.687Z,21.00
2022-07-29T07:41:20.825Z,21.26
2022-07-29T07:46:23.638Z,21.65
2022-07-29T07:51:26.612Z,22.08
2022-07-29T07:56:35.669Z,22.51
2022-07-29T08:01:47.553Z,22.99
2022-07-29T08:06:52.813Z,23.41
2022-07-29T08:12:00.948Z,23.79
2022-07-29T08:17:03.747Z,24.17
2022-07-29T08:22:06.570Z,24.54
2022-07-29T08:27:40.894Z,24.91
2022-07-29T08:32:55.096Z,25.24
2022-07-29T08:43:17.679Z,25.94
2022-07-29T08:48:22.303Z,26.12
2022-07-29T08:53:28.381Z,26.44
2022-07-29T08:58:38.479Z,26.80
2022-07-29T09:03:45.751Z,27.07
2022-07-29T09:08:48.906Z,27.18
2022-07-29T09:13:56.938Z,27.36
2022-07-29T09:18:59.685Z,27.42
2022-07-29T09:24:08.188Z,27.53
2022-07-29T09:29:19.261Z,27.68
2022-07-29T09:34:27.156Z,27.92
2022-07-29T09:39:31.893Z,28.22
2022-07-29T09:44:52.014Z,28.40
2022-07-29T09:49:57.052Z,28.40
2022-07-29T09:55:07.073Z,28.35
2022-07-29T10:00:17.599Z,28.26
2022-07-29T10:05:23.435Z,28.21
2022-07-29T10:10:28.434Z,28.32
2022-07-29T10:20:57.786Z,28.93
2022-07-29T10:26:01.038Z,29.20
2022-07-29T10:31:08.460Z,29.43
2022-07-29T10:36:29.490Z,29.66
2022-07-29T10:42:03.542Z,29.79
2022-07-29T10:47:06.601Z,29.85
2022-07-29T10:52:15.307Z,29.82
2022-07-29T10:57:25.740Z,29.85
2022-07-29T11:02:47.699Z,29.94
2022-07-29T11:08:31.899Z,30.05
2022-07-29T11:13:49.227Z,29.95
2022-07-29T11:19:29.968Z,29.80
2022-07-29T11:24:39.483Z,29.73
2022-07-29T11:35:38.316Z,29.77
2022-07-29T11:40:42.694Z,29.71
2022-07-29T11:45:48.924Z,29.96
2022-07-29T11:50:59.225Z,30.13
2022-07-29T11:56:03.532Z,30.12
2022-07-29T12:01:06.550Z,30.04
2022-07-29T12:11:41.563Z,29.70
2022-07-29T12:16:47.924Z,29.46
2022-07-29T12:27:09.384Z,29.12
2022-07-29T12:32:14.757Z,28.94
2022-07-29T12:37:38.957Z,28.88
2022-07-29T12:43:07.606Z,28.86
2022-07-29T12:48:12.377Z,28.84
2022-07-29T13:09:18.289Z,28.55
2022-07-29T13:14:33.088Z,28.28
2022-07-29T13:19:40.682Z,28.09
2022-07-29T13:24:56.586Z,27.97
2022-07-29T13:30:00.317Z,27.86
2022-07-29T13:40:23.320Z,27.69
2022-07-29T13:45:26.242Z,27.56
2022-07-29T13:50:32.073Z,27.55
2022-07-29T13:55:40.278Z,27.55
2022-07-29T14:00:43.002Z,27.61
2022-07-29T14:05:45.736Z,27.66
2022-07-29T14:10:53.815Z,27.76
2022-07-29T14:15:56.559Z,27.87
2022-07-29T14:20:59.280Z,27.97
2022-07-29T14:26:08.768Z,28.14
2022-07-29T14:31:16.044Z,28.40
2022-07-29T14:36:18.799Z,28.68
2022-07-29T14:41:27.356Z,28.88
2022-07-29T14:46:30.230Z,28.88
2022-07-29T14:51:33.094Z,28.84
2022-07-29T14:56:46.813Z,28.77
2022-07-29T15:01:49.899Z,28.66
2022-07-29T15:06:52.669Z,28.51
2022-07-29T15:12:01.133Z,28.36
2022-07-29T15:17:04.659Z,28.27
2022-07-29T15:22:08.030Z,28.32
2022-07-29T15:27:16.058Z,28.37
2022-07-29T15:32:18.873Z,28.36
2022-07-29T15:37:21.709Z,28.30
2022-07-29T15:47:48.060Z,28.33
2022-07-29T15:52:50.809Z,28.22
2022-07-29T15:57:56.166Z,28.22
2022-07-29T16:08:26.816Z,28.36
2022-07-29T16:18:48.336Z,28.33
2022-07-29T16:23:51.327Z,28.17
2022-07-29T16:28:54.297Z,28.15
2022-07-29T16:34:02.353Z,28.20
2022-07-29T16:39:05.066Z,28.18
2022-07-29T16:44:07.797Z,28.10
2022-07-29T16:49:19.395Z,27.97
2022-07-29T16:54:22.488Z,27.85
2022-07-29T16:59:25.311Z,27.67
2022-07-29T17:04:33.717Z,27.60
2022-07-29T17:09:36.436Z,27.41
2022-07-29T17:14:39.199Z,27.15
2022-07-29T17:19:47.209Z,26.92
2022-07-29T17:24:50.072Z,26.70
2022-07-29T17:29:52.844Z,26.48
2022-07-29T17:40:19.541Z,26.02
2022-07-29T17:45:22.321Z,25.70
2022-07-29T17:50:25.168Z,25.54
2022-07-29T17:55:33.235Z,25.57
2022-07-29T18:00:36.475Z,25.31
2022-07-29T18:05:39.301Z,24.98
2022-07-29T18:10:47.813Z,24.69
2022-07-29T18:15:50.684Z,24.44
2022-07-29T18:20:53.538Z,24.19
2022-07-29T18:26:01.580Z,23.95
2022-07-29T18:31:04.486Z,23.75
2022-07-29T18:36:11.402Z,23.57
2022-07-29T18:41:19.934Z,23.41
2022-07-29T18:51:41.292Z,23.14
2022-07-29T18:56:44.568Z,22.90
2022-07-29T19:01:47.775Z,22.72
2022-07-29T19:06:56.305Z,22.59
2022-07-29T19:12:03.346Z,22.46
2022-07-29T19:17:06.471Z,22.34
2022-07-29T19:22:14.628Z,22.24
2022-07-29T19:27:17.710Z,22.13
2022-07-29T19:32:25.277Z,22.00
2022-07-29T19:37:33.535Z,21.85
2022-07-29T19:42:36.279Z,21.73
2022-07-29T19:47:39.042Z,21.60
2022-07-29T19:52:47.746Z,21.49
2022-07-29T19:57:51.128Z,21.39
2022-07-29T20:02:54.305Z,21.28
2022-07-29T20:08:02.427Z,21.19
2022-07-29T20:13:05.214Z,21.09
2022-07-29T20:18:08.003Z,20.99
2022-07-29T20:23:16.179Z,20.92
2022-07-29T20:28:19.126Z,20.82
2022-07-29T20:33:21.910Z,20.71
2022-07-29T20:38:29.939Z,20.63
2022-07-29T20:43:37.440Z,20.56
2022-07-29T20:48:42.079Z,20.44
2022-07-29T20:53:50.118Z,20.38
2022-07-29T20:58:52.893Z,20.31
2022-07-29T21:03:55.645Z,20.25
2022-07-29T21:09:03.790Z,20.18
2022-07-29T21:14:06.822Z,20.11
2022-07-29T21:19:09.608Z,20.00
2022-07-29T21:24:17.625Z,19.92
2022-07-29T21:34:39.014Z,19.84
2022-07-29T21:39:43.546Z,19.69
2022-07-29T21:44:46.361Z,19.62
2022-07-29T21:49:54.431Z,19.57
2022-07-29T21:54:57.167Z,19.51
2022-07-29T22:05:20.106Z,19.49
2022-07-29T22:10:23.514Z,19.38
2022-07-29T22:15:26.419Z,19.35
2022-07-29T22:25:47.765Z,19.36
2022-07-29T22:30:50.573Z,19.27
2022-07-29T22:35:53.345Z,19.22
2022-07-29T22:41:01.692Z,19.17
2022-07-29T22:51:24.705Z,19.17
2022-07-29T22:56:27.427Z,18.97
2022-07-29T23:06:48.762Z,19.23
2022-07-29T23:11:51.510Z,19.09
2022-07-29T23:16:54.478Z,19.01
2022-07-29T23:22:02.556Z,18.94
2022-07-29T23:27:05.663Z,18.90
2022-07-29T23:32:08.542Z,18.84
2022-07-29T23:37:16.560Z,18.79
2022-07-29T23:42:19.273Z,18.75
2022-07-29T23:52:40.620Z,18.67
2022-07-29T23:57:43.761Z,18.55
